Terminal Aerodrome Forecast
Issued by NWS

Home | Current Version | Previous Version | Text Only | Print | Product List | Glossary On
Versions: 1 2 3 4 5 6 7 8 9 10 11 12 13 14 15 16 17
000
FTUS43 KGLD 071120
TAFMCK
TAF
KMCK 071120Z 0712/0812 03011KT 2SM -SN OVC025
      TEMPO 0712/0716 1SM -SN SCT007 BKN015
     FM071600 03011KT P6SM VCSH OVC015
     FM071800 36011KT P6SM OVC035
     FM080200 30006KT P6SM SCT050=

USA.gov is the U.S. government's official web portal to all federal, state and local government web resources and services.